Texline, Texas
Current Conditions -  °F | °C
As of 12:55 AM on Sunday 21 Dec 2014 (Local Time) from KCAO Reporting Station
Clear Clear  
Wind Chill: -2°   Ceiling: Unl
Heat Index:   Visibility: 10mi
Dew Point: -6°   Wind: 8mph
Humidity: 57%   Direction: 240°WSW
Pressure: 29.9"   Gusts: NA
Location:  36.38°N, 103.02°W
Report Text: KCAO 210655Z AUTO 24007KT 10SM CLR 02/M06 A2990 RMK AO2 SLP111 T00171061 401171033
Loading
Personal Weather Stations






























Interactive Weather Map New forecast layout! Learn more

10-Day Weather Forecast

Advertisements
Track Severe Weather on mobile